Forest Row, United Kingdom
Current Conditions -  °F | °C
As of 9:20 PM on Saturday 22 Nov 2014 (Local Time) from EGKK Reporting Station
Haze Haze  
Wind Chill: 13°   Ceiling: 200
Heat Index: 13°   Visibility: 0.93mi
Dew Point: 13°   Wind: 3mph
Humidity: 100%   Direction: NA
Pressure: 29.97"   Gusts: NA
Location:  51.1°N, 0.03°E
Report Text: EGKK 222120Z VRB03KT 1500 BR OVC002 13/13 Q1015
Loading
Personal Weather Stations






























Interactive Weather Map New forecast layout! Learn more

10-Day Weather Forecast

Advertisements
Track Severe Weather on mobile